Time;durP1;ratioP1;P1;durP2;ratioP2;P2;SDS_P1;SDS_P2;PMS_P1;PMS_P2;Temp;Humidity;BMP_temperature;BMP_pressure;BME280_temperature;BME280_humidity;BME280_pressure;Samples;Min_cycle;Max_cycle;Signal;HPM_P1;HPM_P2
2023/05/31 00:00:31;;;;;;;0.47;0.25;;;;;;;13.47;78.91;102366.13;7353530;19;20025;-66
2023/05/31 00:02:59;;;;;;;2.58;0.10;;;;;;;13.40;78.01;102358.88;7352131;19;20018;-65
2023/05/31 00:05:26;;;;;;;1.00;0.10;;;;;;;13.42;77.93;102351.63;7355228;19;20994;-67
2023/05/31 00:07:53;;;;;;;2.03;0.45;;;;;;;13.48;78.54;102348.47;7353671;19;21036;-65
2023/05/31 00:10:21;;;;;;;0.63;0.10;;;;;;;13.54;78.70;102343.50;7353546;19;20030;-66
2023/05/31 00:12:48;;;;;;;0.30;0.10;;;;;;;13.57;78.90;102356.44;7356674;19;20102;-65
2023/05/31 00:15:15;;;;;;;1.08;0.10;;;;;;;13.39;79.58;102338.69;7353175;19;20006;-66
2023/05/31 00:17:42;;;;;;;0.73;0.10;;;;;;;13.27;79.49;102340.59;7354262;19;20022;-66
2023/05/31 00:20:19;;;;;;;0.30;0.10;;;;;;;13.32;79.77;102333.09;7354761;19;20018;-65
2023/05/31 00:22:46;;;;;;;0.30;0.10;;;;;;;13.35;78.97;102339.94;7354985;19;20082;-66
2023/05/31 00:25:14;;;;;;;0.90;0.10;;;;;;;13.36;79.01;102347.72;7352084;19;20900;-67
2023/05/31 00:27:41;;;;;;;0.40;0.10;;;;;;;13.32;78.01;102348.13;7355097;19;20018;-65
2023/05/31 00:30:09;;;;;;;1.17;0.10;;;;;;;13.34;77.63;102344.38;7352953;19;20777;-66
2023/05/31 00:32:36;;;;;;;0.57;0.00;;;;;;;13.29;78.09;102351.88;7352729;19;20022;-67
2023/05/31 00:35:04;;;;;;;0.20;0.10;;;;;;;13.33;78.07;102347.16;7354030;19;20209;-64
2023/05/31 00:37:37;;;;;;;0.57;0.00;;;;;;;13.36;77.89;102357.47;7353532;19;20030;-65
2023/05/31 00:40:05;;;;;;;0.20;0.10;;;;;;;13.39;77.74;102351.91;7354742;19;20018;-66
2023/05/31 00:42:33;;;;;;;1.08;0.10;;;;;;;13.35;77.88;102356.66;7354876;19;20105;-66
2023/05/31 00:45:00;;;;;;;0.35;0.10;;;;;;;13.35;78.00;102351.34;7352578;19;20022;-65
2023/05/31 00:47:28;;;;;;;0.63;0.10;;;;;;;13.38;78.68;102356.38;7349596;19;20021;-66
2023/05/31 00:49:56;;;;;;;0.32;0.10;;;;;;;13.27;79.53;102357.28;7352751;19;20018;-65
2023/05/31 00:52:25;;;;;;;1.17;0.10;;;;;;;13.32;79.49;102356.88;7354616;19;20537;-65
2023/05/31 00:54:53;;;;;;;1.60;0.10;;;;;;;13.31;80.43;102352.56;7354549;19;20015;-66
2023/05/31 00:57:20;;;;;;;2.28;0.17;;;;;;;13.08;82.28;102348.41;7351492;19;20107;-65
2023/05/31 00:59:49;;;;;;;1.05;0.10;;;;;;;13.05;82.67;102349.53;7354756;19;20115;-65
2023/05/31 01:02:18;;;;;;;2.15;0.40;;;;;;;13.09;83.10;102340.34;7350863;19;21425;-65
2023/05/31 01:04:46;;;;;;;2.83;0.20;;;;;;;13.13;82.87;102343.59;7357227;19;20538;-65
2023/05/31 01:07:13;;;;;;;0.55;0.15;;;;;;;13.15;82.98;102342.50;7361411;19;20014;-65
2023/05/31 01:09:42;;;;;;;0.93;0.00;;;;;;;13.14;84.00;102342.63;7363279;19;20018;-65
2023/05/31 01:12:17;;;;;;;0.73;0.10;;;;;;;13.12;84.23;102345.41;7360871;19;20037;-66
2023/05/31 01:14:58;;;;;;;0.43;0.10;;;;;;;13.07;85.45;102344.06;7360200;19;20006;-66
2023/05/31 01:17:34;;;;;;;2.13;0.20;;;;;;;13.10;86.49;102338.56;7356768;19;20022;-65
2023/05/31 01:20:08;;;;;;;0.80;0.20;;;;;;;13.00;86.32;102341.16;7360606;19;20006;-64
2023/05/31 01:22:51;;;;;;;0.95;0.20;;;;;;;13.02;86.16;102333.91;7359773;19;20015;-66
2023/05/31 01:25:25;;;;;;;1.10;0.20;;;;;;;12.99;86.08;102330.69;7360700;19;20034;-67
2023/05/31 01:27:54;;;;;;;1.90;0.10;;;;;;;13.01;85.47;102331.38;7359110;19;20048;-66
2023/05/31 01:30:22;;;;;;;1.85;0.10;;;;;;;13.00;84.77;102340.31;7357198;19;20067;-65
2023/05/31 01:32:52;;;;;;;0.98;0.20;;;;;;;13.01;84.83;102340.16;7358713;19;19999;-65
2023/05/31 01:35:19;;;;;;;0.68;0.10;;;;;;;12.97;85.13;102336.09;7361535;19;20697;-65
2023/05/31 01:37:46;;;;;;;0.50;0.20;;;;;;;12.86;86.42;102330.91;7361415;19;20010;-65
2023/05/31 01:40:16;;;;;;;0.77;0.20;;;;;;;12.90;87.54;102339.41;7361093;19;20046;-66
2023/05/31 01:42:46;;;;;;;2.53;0.30;;;;;;;12.83;87.33;102339.94;7359513;19;20034;-65
2023/05/31 01:45:14;;;;;;;1.75;0.20;;;;;;;12.85;87.42;102337.97;7358205;19;20769;-66
2023/05/31 01:47:42;;;;;;;1.15;0.35;;;;;;;12.91;87.81;102325.22;7359630;19;20040;-65
2023/05/31 01:50:13;;;;;;;1.70;0.30;;;;;;;12.91;87.52;102331.34;7361433;19;20018;-65
2023/05/31 01:52:40;;;;;;;3.03;0.30;;;;;;;12.94;87.46;102327.63;7360470;19;20054;-66
2023/05/31 01:55:08;;;;;;;1.23;0.30;;;;;;;12.94;87.37;102331.09;7360718;19;20014;-64
2023/05/31 01:57:41;;;;;;;2.65;0.30;;;;;;;12.92;87.18;102325.09;7358770;19;20031;-66
2023/05/31 02:00:11;;;;;;;1.50;0.40;;;;;;;12.98;87.27;102315.81;7358689;19;20069;-65
2023/05/31 02:02:42;;;;;;;1.25;0.45;;;;;;;13.03;87.41;102319.72;7357000;19;21779;-65
2023/05/31 02:05:11;;;;;;;3.15;0.30;;;;;;;13.07;87.61;102328.22;7357547;19;20010;-65
2023/05/31 02:07:42;;;;;;;0.70;0.20;;;;;;;13.05;86.52;102331.03;7357778;19;20050;-66
2023/05/31 02:10:10;;;;;;;1.90;0.20;;;;;;;13.01;86.24;102321.66;7358114;19;20126;-65
2023/05/31 02:12:38;;;;;;;1.25;0.20;;;;;;;12.99;85.79;102315.69;7358496;19;20490;-66
2023/05/31 02:15:10;;;;;;;1.75;0.20;;;;;;;12.98;86.01;102319.28;7357549;19;20022;-65
2023/05/31 02:17:42;;;;;;;1.30;0.20;;;;;;;13.00;85.49;102301.50;7349496;19;20011;-65
2023/05/31 02:20:12;;;;;;;1.40;0.20;;;;;;;12.98;85.92;102310.53;7359588;19;20007;-66
2023/05/31 02:22:41;;;;;;;2.35;0.38;;;;;;;13.02;86.12;102311.94;7355230;19;20026;-66
2023/05/31 02:25:10;;;;;;;1.00;0.30;;;;;;;13.01;85.63;102311.09;7357841;19;20850;-66
2023/05/31 02:27:37;;;;;;;1.13;0.30;;;;;;;13.01;85.59;102310.25;7358744;19;20018;-66
2023/05/31 02:30:06;;;;;;;1.77;0.30;;;;;;;12.95;85.50;102305.50;7357480;19;20022;-66
2023/05/31 02:32:35;;;;;;;1.80;0.15;;;;;;;13.00;85.53;102309.44;7355999;19;20018;-67
2023/05/31 02:35:05;;;;;;;2.08;0.30;;;;;;;12.96;85.61;102312.44;7357186;19;20025;-65
2023/05/31 02:37:33;;;;;;;1.20;0.20;;;;;;;13.00;85.63;102308.59;7357515;19;20015;-67
2023/05/31 02:40:00;;;;;;;0.68;0.25;;;;;;;12.99;85.70;102306.91;7358710;19;21127;-65
2023/05/31 02:42:27;;;;;;;2.85;0.50;;;;;;;12.98;85.32;102299.97;7360051;19;20046;-66
2023/05/31 02:44:55;;;;;;;1.75;0.28;;;;;;;13.02;85.35;102301.34;7357296;19;20020;-65
2023/05/31 02:47:22;;;;;;;1.08;0.30;;;;;;;12.93;85.13;102299.50;7354016;19;20586;-65
2023/05/31 02:49:49;;;;;;;2.83;0.20;;;;;;;12.98;85.45;102300.78;7355842;19;20010;-66
2023/05/31 02:52:16;;;;;;;0.57;0.28;;;;;;;13.00;86.39;102306.78;7355209;19;20025;-66
2023/05/31 02:54:44;;;;;;;1.85;0.30;;;;;;;13.03;86.64;102303.03;7358375;19;20047;-66
2023/05/31 02:57:11;;;;;;;1.05;0.30;;;;;;;13.07;86.66;102304.44;7356271;19;20018;-66
2023/05/31 02:59:38;;;;;;;1.02;0.25;;;;;;;13.06;87.06;102311.53;7357770;19;20019;-66
2023/05/31 03:02:05;;;;;;;0.90;0.20;;;;;;;12.99;87.99;102307.75;7352616;19;20047;-66
2023/05/31 03:04:33;;;;;;;3.10;0.30;;;;;;;12.78;88.23;102307.78;7357444;19;20014;-66
2023/05/31 03:07:00;;;;;;;1.88;0.30;;;;;;;12.79;88.41;102304.19;7356663;19;20017;-66
2023/05/31 03:09:28;;;;;;;1.33;0.30;;;;;;;12.82;88.88;102303.06;7359082;19;20037;-66
2023/05/31 03:11:55;;;;;;;1.10;0.20;;;;;;;12.87;88.96;102303.50;7354996;19;20070;-66
2023/05/31 03:14:22;;;;;;;1.13;0.30;;;;;;;12.85;89.96;102300.16;7353961;19;20086;-66
2023/05/31 03:16:50;;;;;;;1.20;0.28;;;;;;;12.76;89.94;102300.94;7355905;19;20014;-65
2023/05/31 03:19:17;;;;;;;0.68;0.28;;;;;;;12.78;90.22;102297.22;7357786;19;20098;-65
2023/05/31 03:21:44;;;;;;;1.13;0.25;;;;;;;12.80;90.71;102299.72;7355018;19;20017;-65
2023/05/31 03:24:12;;;;;;;2.35;0.30;;;;;;;12.87;89.82;102308.78;7356864;19;20030;-65
2023/05/31 03:26:39;;;;;;;3.00;0.30;;;;;;;12.90;90.05;102300.59;7355753;19;20018;-65
2023/05/31 03:29:06;;;;;;;1.10;0.30;;;;;;;12.91;89.27;102294.34;7356176;19;20282;-66
2023/05/31 03:31:34;;;;;;;1.25;0.30;;;;;;;12.92;89.08;102301.31;7352294;19;20025;-65
2023/05/31 03:34:15;;;;;;;1.75;0.28;;;;;;;12.94;88.94;102288.81;7355855;19;20022;-66
2023/05/31 03:36:42;;;;;;;1.48;0.20;;;;;;;12.95;89.10;102294.94;7356601;19;20786;-65
2023/05/31 03:39:10;;;;;;;2.08;0.30;;;;;;;13.01;88.52;102283.81;7356033;19;20085;-68
2023/05/31 03:41:37;;;;;;;0.80;0.28;;;;;;;13.05;88.10;102291.38;7355836;19;20090;-65
2023/05/31 03:44:04;;;;;;;0.98;0.30;;;;;;;13.07;87.62;102284.13;7354967;19;20015;-65
2023/05/31 03:46:32;;;;;;;0.85;0.20;;;;;;;13.10;87.14;102281.25;7353989;19;20014;-65
2023/05/31 03:48:59;;;;;;;2.03;0.22;;;;;;;13.10;86.61;102289.19;7349870;19;20099;-66
2023/05/31 03:51:27;;;;;;;0.80;0.30;;;;;;;13.09;87.33;102292.78;7354998;19;20014;-65
2023/05/31 03:53:54;;;;;;;1.05;0.20;;;;;;;13.07;87.49;102293.88;7356203;19;20026;-66
2023/05/31 03:56:21;;;;;;;2.22;0.30;;;;;;;13.12;87.15;102294.34;7354404;19;20017;-64
2023/05/31 03:58:48;;;;;;;0.63;0.20;;;;;;;13.10;87.02;102290.97;7355844;19;20059;-65
2023/05/31 04:01:17;;;;;;;2.20;0.40;;;;;;;13.09;87.56;102306.00;7352449;19;20042;-66
2023/05/31 04:03:44;;;;;;;1.65;0.30;;;;;;;13.09;87.57;102295.44;7354102;19;20037;-65
2023/05/31 04:06:12;;;;;;;2.40;0.40;;;;;;;13.09;87.34;102286.66;7355388;19;20018;-65
2023/05/31 04:08:39;;;;;;;1.50;0.40;;;;;;;13.09;88.02;102290.16;7354181;19;20026;-66
2023/05/31 04:11:06;;;;;;;2.22;0.30;;;;;;;13.13;87.86;102302.16;7354025;19;20014;-67
2023/05/31 04:13:33;;;;;;;1.85;0.30;;;;;;;13.15;87.10;102294.94;7354865;19;20147;-65
2023/05/31 04:16:01;;;;;;;1.55;0.30;;;;;;;13.14;87.08;102303.00;7351170;19;20044;-65
2023/05/31 04:18:28;;;;;;;2.58;0.30;;;;;;;13.02;87.52;102301.34;7353836;19;20733;-65
2023/05/31 04:20:55;;;;;;;4.05;0.40;;;;;;;13.03;88.18;102306.53;7355213;19;20015;-66
2023/05/31 04:23:22;;;;;;;1.58;0.30;;;;;;;12.94;88.48;102304.69;7354697;19;20018;-65
2023/05/31 04:25:49;;;;;;;0.95;0.30;;;;;;;12.98;88.66;102310.53;7351834;19;20024;-65
2023/05/31 04:28:18;;;;;;;1.30;0.20;;;;;;;12.96;88.61;102315.94;7354095;19;20078;-66
2023/05/31 04:30:46;;;;;;;2.20;0.43;;;;;;;12.93;89.21;102318.00;7352541;19;20014;-66
2023/05/31 04:33:17;;;;;;;0.90;0.40;;;;;;;12.88;90.13;102314.91;7352473;19;20031;-66
2023/05/31 04:35:45;;;;;;;1.17;0.30;;;;;;;12.88;90.14;102317.56;7353217;19;20085;-66
2023/05/31 04:38:14;;;;;;;1.73;1.23;;;;;;;12.81;89.91;102318.06;7353608;19;20026;-65
2023/05/31 04:40:42;;;;;;;3.50;0.57;;;;;;;12.82;89.84;102318.91;7360311;19;20601;-65
2023/05/31 04:43:09;;;;;;;1.55;0.30;;;;;;;12.84;89.79;102323.13;7360988;19;20015;-66
2023/05/31 04:45:36;;;;;;;0.75;0.30;;;;;;;12.85;89.75;102321.28;7360180;19;20015;-67
2023/05/31 04:48:03;;;;;;;1.10;0.30;;;;;;;12.82;90.51;102316.28;7357920;19;20487;-66
2023/05/31 04:50:31;;;;;;;0.85;0.30;;;;;;;12.86;91.22;102318.53;7360807;19;20022;-66
2023/05/31 04:52:58;;;;;;;1.90;0.40;;;;;;;12.86;91.34;102317.69;7360218;19;20023;-65
2023/05/31 04:55:26;;;;;;;3.92;0.60;;;;;;;12.90;91.60;102307.72;7362498;19;20501;-67
2023/05/31 04:57:55;;;;;;;3.33;0.60;;;;;;;12.90;91.96;102318.28;7361694;19;20022;-64
2023/05/31 05:00:23;;;;;;;5.00;0.30;;;;;;;12.90;91.74;102316.44;7358974;19;20007;-65
2023/05/31 05:02:50;;;;;;;2.80;0.60;;;;;;;12.97;90.34;102320.25;7359013;19;20018;-65
2023/05/31 05:05:17;;;;;;;1.70;0.30;;;;;;;12.96;91.09;102315.09;7360701;19;20693;-65
2023/05/31 05:07:45;;;;;;;2.17;0.30;;;;;;;12.98;91.44;102321.09;7361616;19;20018;-66
2023/05/31 05:10:12;;;;;;;0.80;0.30;;;;;;;12.99;89.94;102317.50;7361324;19;20714;-66
2023/05/31 05:12:39;;;;;;;2.03;0.30;;;;;;;13.00;90.29;102324.44;7360001;19;20030;-66
2023/05/31 05:15:07;;;;;;;1.65;0.40;;;;;;;12.94;90.06;102315.25;7360697;19;20014;-65
2023/05/31 05:17:34;;;;;;;0.98;0.30;;;;;;;12.96;90.75;102315.94;7356763;19;20034;-65
2023/05/31 05:20:05;;;;;;;1.80;0.40;;;;;;;12.97;90.64;102314.97;7357911;19;20086;-65
2023/05/31 05:22:32;;;;;;;1.20;0.40;;;;;;;13.03;90.29;102322.38;7359449;19;20337;-66
2023/05/31 05:25:00;;;;;;;3.47;0.50;;;;;;;13.04;89.58;102324.06;7358790;19;20010;-65
2023/05/31 05:27:27;;;;;;;1.67;0.68;;;;;;;12.92;89.63;102311.88;7365296;19;20090;-65
2023/05/31 05:29:56;;;;;;;3.42;0.40;;;;;;;12.96;90.02;102312.44;7361388;19;20023;-65
2023/05/31 05:32:23;;;;;;;2.30;0.60;;;;;;;12.96;90.47;102323.00;7357890;19;20051;-65
2023/05/31 05:34:50;;;;;;;2.35;0.40;;;;;;;12.93;89.91;102318.84;7362131;19;20020;-65
2023/05/31 05:37:18;;;;;;;1.80;0.35;;;;;;;12.90;90.13;102323.56;7361032;19;20007;-65
2023/05/31 05:39:45;;;;;;;1.63;0.55;;;;;;;12.68;90.60;102322.75;7361728;19;20060;-66
2023/05/31 05:42:12;;;;;;;2.33;0.45;;;;;;;12.61;91.64;102318.09;7362509;19;20018;-66
2023/05/31 05:44:40;;;;;;;1.15;0.40;;;;;;;12.64;92.12;102320.50;7360786;19;20014;-65
2023/05/31 05:47:07;;;;;;;1.67;0.32;;;;;;;12.64;92.29;102323.13;7357675;19;20003;-66
2023/05/31 05:49:34;;;;;;;1.85;0.40;;;;;;;12.66;92.41;102329.94;7359460;19;20433;-66
2023/05/31 05:52:02;;;;;;;2.53;0.40;;;;;;;12.67;92.79;102325.50;7356815;19;20023;-66
2023/05/31 05:54:29;;;;;;;1.98;0.40;;;;;;;12.67;92.50;102323.69;7359975;19;20018;-66
2023/05/31 05:56:56;;;;;;;1.60;0.60;;;;;;;12.72;92.76;102328.59;7357391;19;20055;-66
2023/05/31 05:59:23;;;;;;;2.22;0.50;;;;;;;12.78;92.53;102326.28;7358358;19;20976;-66
2023/05/31 06:01:50;;;;;;;1.75;0.40;;;;;;;12.82;91.47;102343.53;7356688;19;20385;-68
2023/05/31 06:04:17;;;;;;;1.58;0.40;;;;;;;12.85;91.49;102329.22;7361904;19;20740;-65
2023/05/31 06:06:45;;;;;;;1.70;0.40;;;;;;;12.89;91.87;102322.72;7358865;19;20043;-67
2023/05/31 06:09:12;;;;;;;1.88;0.40;;;;;;;12.90;91.42;102332.31;7360584;19;20019;-66
2023/05/31 06:11:40;;;;;;;2.80;1.05;;;;;;;13.00;92.04;102337.66;7359448;19;20011;-66
2023/05/31 06:14:07;;;;;;;1.15;0.40;;;;;;;12.94;91.22;102330.25;7360539;19;20023;-66
2023/05/31 06:16:34;;;;;;;2.25;0.40;;;;;;;12.98;91.56;102331.66;7356464;19;20046;-66
2023/05/31 06:19:02;;;;;;;2.53;0.50;;;;;;;13.01;91.93;102321.66;7358219;19;20030;-65
2023/05/31 06:21:29;;;;;;;2.10;0.40;;;;;;;12.99;91.24;102334.19;7358380;19;20411;-65
2023/05/31 06:23:56;;;;;;;4.20;0.55;;;;;;;12.99;92.28;102331.53;7360446;19;20018;-66
2023/05/31 06:26:24;;;;;;;1.80;0.30;;;;;;;12.99;91.95;102338.63;7358025;19;20049;-65
2023/05/31 06:28:51;;;;;;;1.25;0.30;;;;;;;12.99;91.31;102328.91;7358372;19;20510;-66
2023/05/31 06:31:18;;;;;;;1.75;0.40;;;;;;;13.04;91.01;102331.97;7353896;19;20020;-66
2023/05/31 06:33:46;;;;;;;0.90;0.30;;;;;;;13.01;90.71;102326.09;7357668;19;20010;-66
2023/05/31 06:36:13;;;;;;;2.17;0.93;;;;;;;12.95;90.88;102327.50;7359361;19;20019;-67
2023/05/31 06:38:40;;;;;;;2.55;0.30;;;;;;;12.93;90.61;102326.78;7356796;19;20022;-66
2023/05/31 06:41:07;;;;;;;2.15;0.70;;;;;;;12.97;90.52;102330.81;7357472;19;20026;-68
2023/05/31 06:43:34;;;;;;;0.95;0.30;;;;;;;13.05;90.59;102327.53;7357459;19;20902;-67
2023/05/31 06:46:01;;;;;;;1.23;0.40;;;;;;;13.12;90.75;102326.06;7356568;19;20030;-66
2023/05/31 06:48:29;;;;;;;0.73;0.20;;;;;;;13.18;90.47;102331.66;7357112;19;20022;-65
2023/05/31 06:50:56;;;;;;;1.27;0.20;;;;;;;13.24;89.62;102327.66;7359578;19;20027;-66
2023/05/31 06:53:24;;;;;;;3.20;0.40;;;;;;;13.39;88.58;102334.25;7356088;19;20094;-66
2023/05/31 06:55:51;;;;;;;1.13;0.20;;;;;;;13.43;87.33;102322.44;7356087;19;20026;-66
2023/05/31 06:58:18;;;;;;;0.80;0.20;;;;;;;13.51;85.94;102324.41;7356906;19;20014;-65
2023/05/31 07:00:46;;;;;;;0.47;0.10;;;;;;;13.50;85.80;102328.03;7355061;19;20018;-66
2023/05/31 07:03:25;;;;;;;0.93;0.10;;;;;;;13.50;86.31;102315.63;7354089;19;20014;-66
2023/05/31 07:05:52;;;;;;;0.95;0.20;;;;;;;13.48;86.61;102320.22;7356356;19;20059;-66
2023/05/31 07:08:20;;;;;;;0.35;0.10;;;;;;;13.50;86.81;102320.09;7355677;19;20684;-65
2023/05/31 07:10:47;;;;;;;0.45;0.10;;;;;;;13.49;88.15;102323.69;7357722;19;20038;-66
2023/05/31 07:13:15;;;;;;;1.35;0.20;;;;;;;13.46;88.87;102327.44;7354097;19;20010;-66
2023/05/31 07:15:42;;;;;;;1.67;0.22;;;;;;;13.39;89.17;102322.84;7355666;19;20053;-66
2023/05/31 07:18:09;;;;;;;0.73;0.20;;;;;;;13.36;88.50;102320.47;7354414;19;20014;-65
2023/05/31 07:20:37;;;;;;;1.85;0.28;;;;;;;13.43;88.78;102325.06;7356451;19;20399;-65
2023/05/31 07:23:04;;;;;;;1.08;0.30;;;;;;;13.41;88.72;102319.06;7355632;19;20668;-65
2023/05/31 07:25:32;;;;;;;3.13;0.40;;;;;;;13.43;89.55;102311.00;7355893;19;20018;-65
2023/05/31 07:27:59;;;;;;;0.95;0.20;;;;;;;13.48;89.10;102311.44;7355291;19;20018;-66
2023/05/31 07:30:26;;;;;;;1.08;0.25;;;;;;;13.52;88.91;102305.75;7355045;19;20042;-66
2023/05/31 07:32:54;;;;;;;2.80;0.40;;;;;;;13.57;87.39;102314.09;7352653;19;20007;-66
2023/05/31 07:35:21;;;;;;;1.20;0.30;;;;;;;13.66;87.08;102318.59;7356928;19;20025;-65
2023/05/31 07:37:49;;;;;;;2.05;0.40;;;;;;;13.74;85.82;102312.63;7355904;19;20011;-65
2023/05/31 07:40:16;;;;;;;6.10;0.50;;;;;;;13.88;85.33;102319.31;7354319;19;20048;-66
2023/05/31 07:42:44;;;;;;;2.33;0.60;;;;;;;14.00;82.47;102318.22;7355138;19;20014;-65
2023/05/31 07:45:11;;;;;;;2.05;0.73;;;;;;;14.07;82.40;102316.69;7354546;19;20554;-66
2023/05/31 07:47:38;;;;;;;2.05;0.70;;;;;;;14.10;81.67;102303.19;7352848;19;20010;-65
2023/05/31 07:50:07;;;;;;;4.20;1.08;;;;;;;14.08;82.44;102305.97;7353364;19;20025;-66
2023/05/31 07:52:34;;;;;;;3.55;0.73;;;;;;;14.11;82.30;102305.72;7352378;19;20078;-67
2023/05/31 07:55:02;;;;;;;5.10;1.05;;;;;;;14.24;81.36;102305.41;7357089;19;20026;-65
2023/05/31 07:57:31;;;;;;;9.02;1.13;;;;;;;14.24;80.94;102307.22;7356404;19;20014;-65
2023/05/31 07:59:59;;;;;;;4.18;0.90;;;;;;;14.30;80.83;102311.97;7354300;19;20094;-65
2023/05/31 08:02:26;;;;;;;2.47;1.02;;;;;;;14.36;80.13;102303.47;7352336;19;20018;-66
2023/05/31 08:04:54;;;;;;;2.72;0.90;;;;;;;14.43;79.79;102300.13;7355643;19;20014;-68
2023/05/31 08:07:24;;;;;;;2.75;0.75;;;;;;;14.39;79.66;102301.41;7354837;19;20010;-67
2023/05/31 08:09:51;;;;;;;3.75;0.93;;;;;;;14.34;78.69;102294.81;7354814;19;20530;-68
2023/05/31 08:12:19;;;;;;;2.50;0.95;;;;;;;14.37;78.13;102302.53;7353990;19;20142;-66
2023/05/31 08:14:52;;;;;;;2.45;0.90;;;;;;;14.42;78.14;102295.00;7354619;19;20018;-65
2023/05/31 08:17:20;;;;;;;5.05;1.00;;;;;;;14.46;77.27;102304.31;7351908;19;20014;-66
2023/05/31 08:19:47;;;;;;;6.45;1.40;;;;;;;14.40;77.77;102303.06;7355826;19;20030;-65
2023/05/31 08:22:14;;;;;;;4.28;1.60;;;;;;;14.35;77.86;102288.53;7355903;19;20014;-66
2023/05/31 08:24:42;;;;;;;7.03;2.45;;;;;;;14.27;78.29;102301.66;7353438;19;20015;-65
2023/05/31 08:27:09;;;;;;;3.55;1.38;;;;;;;14.27;78.32;102288.44;7354082;19;20090;-67
2023/05/31 08:29:36;;;;;;;6.10;2.53;;;;;;;14.22;78.31;102293.31;7354795;19;20141;-66
2023/05/31 08:32:04;;;;;;;7.25;2.75;;;;;;;14.25;77.72;102293.00;7351375;19;20019;-66
2023/05/31 08:34:31;;;;;;;7.93;2.78;;;;;;;14.26;78.33;102294.69;7354625;19;20007;-66
2023/05/31 08:36:59;;;;;;;6.25;2.60;;;;;;;14.34;78.01;102300.09;7352818;19;20010;-66
2023/05/31 08:39:27;;;;;;;4.18;2.13;;;;;;;14.42;78.00;102295.00;7355316;19;20011;-65
2023/05/31 08:42:00;;;;;;;6.82;3.25;;;;;;;14.52;77.60;102303.75;7353542;19;20011;-65
2023/05/31 08:44:29;;;;;;;7.53;3.35;;;;;;;14.43;77.09;102297.47;7354377;19;20692;-66
2023/05/31 08:47:03;;;;;;;8.65;3.47;;;;;;;14.48;76.58;102300.53;7351499;19;20015;-66
2023/05/31 08:49:33;;;;;;;9.30;3.88;;;;;;;14.42;77.02;102300.28;7351257;19;20437;-66
2023/05/31 08:52:05;;;;;;;5.32;2.80;;;;;;;14.53;76.92;102289.50;7351525;19;20014;-67
2023/05/31 08:54:34;;;;;;;7.82;3.20;;;;;;;14.58;76.74;102284.63;7351034;19;20910;-67
2023/05/31 08:57:03;;;;;;;7.47;3.65;;;;;;;14.65;76.28;102284.91;7351577;19;20021;-66
2023/05/31 08:59:30;;;;;;;6.45;2.65;;;;;;;14.69;76.58;102283.63;7354094;19;20019;-66
2023/05/31 09:02:00;;;;;;;8.30;2.83;;;;;;;14.75;76.68;102285.72;7348911;19;20011;-66
2023/05/31 09:04:28;;;;;;;4.88;2.28;;;;;;;14.63;77.07;102279.72;7353025;19;20021;-66
2023/05/31 09:06:56;;;;;;;6.25;2.60;;;;;;;14.70;77.08;102283.50;7352113;19;21091;-66
2023/05/31 09:09:23;;;;;;;6.10;2.15;;;;;;;14.75;77.01;102289.19;7352904;19;20021;-66
2023/05/31 09:11:52;;;;;;;4.72;1.60;;;;;;;14.78;77.15;102277.50;7349617;19;20037;-67
2023/05/31 09:14:20;;;;;;;3.95;2.05;;;;;;;14.83;76.82;102281.34;7351869;19;20055;-66
2023/05/31 09:16:50;;;;;;;6.82;2.40;;;;;;;14.89;76.47;102288.72;7350433;19;20010;-66
2023/05/31 09:19:18;;;;;;;5.82;2.33;;;;;;;14.84;76.53;102290.13;7352315;19;20277;-67
2023/05/31 09:21:45;;;;;;;4.70;2.22;;;;;;;14.83;76.46;102286.66;7349057;19;20006;-67
2023/05/31 09:24:14;;;;;;;4.70;2.20;;;;;;;14.89;76.43;102282.59;7350948;19;20021;-66
2023/05/31 09:26:46;;;;;;;5.90;2.15;;;;;;;14.92;76.32;102279.66;7356455;19;20884;-66
2023/05/31 09:29:15;;;;;;;6.57;2.65;;;;;;;14.83;76.25;102280.53;7359511;19;20043;-65
2023/05/31 09:31:42;;;;;;;4.22;2.13;;;;;;;14.74;77.04;102279.56;7356352;19;20018;-68
2023/05/31 09:34:25;;;;;;;6.75;2.25;;;;;;;14.81;77.28;102274.53;7357727;19;20405;-67
2023/05/31 09:36:58;;;;;;;6.90;2.50;;;;;;;14.85;76.69;102284.69;7356596;19;20455;-66
2023/05/31 09:39:26;;;;;;;6.65;2.58;;;;;;;14.84;76.98;102277.72;7359882;19;20704;-66
2023/05/31 09:41:56;;;;;;;4.13;2.10;;;;;;;14.86;76.65;102273.13;7359469;19;20052;-66
2023/05/31 09:44:28;;;;;;;7.53;2.35;;;;;;;14.93;76.36;102266.25;7363143;19;20039;-68
2023/05/31 09:46:56;;;;;;;6.72;2.03;;;;;;;15.03;76.31;102282.13;7352237;19;20047;-66
2023/05/31 09:49:24;;;;;;;5.90;1.88;;;;;;;14.90;76.39;102263.91;7356457;19;20015;-66
2023/05/31 09:51:52;;;;;;;5.50;1.90;;;;;;;14.82;76.62;102271.75;7357733;19;20020;-66
2023/05/31 09:54:24;;;;;;;3.78;1.90;;;;;;;14.90;76.59;102263.91;7352605;19;20094;-65
2023/05/31 09:56:54;;;;;;;6.70;2.95;;;;;;;15.01;76.61;102265.53;7352151;19;20337;-66
2023/05/31 09:59:21;;;;;;;8.65;2.55;;;;;;;15.20;75.34;102268.09;7358136;19;20033;-65
2023/05/31 10:01:52;;;;;;;6.25;2.08;;;;;;;15.28;75.64;102262.91;7354241;19;20335;-66
2023/05/31 10:04:20;;;;;;;9.40;2.38;;;;;;;15.38;75.54;102265.50;7358205;19;20574;-67
2023/05/31 10:06:48;;;;;;;6.47;2.42;;;;;;;15.48;75.04;102260.13;7357074;19;20015;-66
2023/05/31 10:09:15;;;;;;;9.65;2.28;;;;;;;15.65;73.64;102262.81;7356134;19;20037;-65
2023/05/31 10:11:50;;;;;;;7.05;2.35;;;;;;;15.75;73.39;102255.63;7356902;19;20022;-67
2023/05/31 10:14:24;;;;;;;4.93;2.22;;;;;;;15.85;73.18;102255.53;7331714;19;20022;-67
2023/05/31 10:16:55;;;;;;;6.63;2.40;;;;;;;15.90;73.51;102263.88;7340298;19;20010;-66
2023/05/31 10:19:27;;;;;;;7.25;2.05;;;;;;;15.95;72.34;102266.91;7349956;19;20022;-66
2023/05/31 10:21:58;;;;;;;7.03;2.42;;;;;;;15.91;72.49;102249.63;7349663;19;20019;-66
2023/05/31 10:24:33;;;;;;;5.70;2.15;;;;;;;15.92;72.58;102259.28;7347557;19;20047;-69
2023/05/31 10:27:08;;;;;;;5.68;2.15;;;;;;;15.99;72.55;102257.69;7349117;19;20015;-66
2023/05/31 10:29:40;;;;;;;4.95;2.08;;;;;;;15.93;73.02;102260.94;7350415;19;20086;-66
2023/05/31 10:32:16;;;;;;;6.00;1.95;;;;;;;15.95;73.33;102258.16;7347187;19;21368;-66
2023/05/31 10:34:44;;;;;;;8.25;2.30;;;;;;;15.90;73.19;102252.47;7353412;19;20011;-67
2023/05/31 10:37:13;;;;;;;8.73;1.80;;;;;;;15.86;73.58;102251.06;7349343;19;20448;-66
2023/05/31 10:39:48;;;;;;;7.25;2.00;;;;;;;15.84;73.29;102253.91;7352874;19;20041;-66
2023/05/31 10:42:21;;;;;;;6.03;2.20;;;;;;;15.89;73.11;102261.41;7352833;19;20037;-67
2023/05/31 10:44:59;;;;;;;6.68;2.22;;;;;;;15.82;73.42;102256.69;7350152;19;20022;-66
2023/05/31 10:47:37;;;;;;;8.07;2.80;;;;;;;15.73;73.82;102257.63;7349317;19;20010;-67
2023/05/31 10:50:05;;;;;;;7.03;2.50;;;;;;;15.81;73.81;102256.84;7351684;19;20550;-66
2023/05/31 10:52:33;;;;;;;6.43;2.58;;;;;;;15.81;73.62;102255.03;7350880;19;20017;-66
2023/05/31 10:55:06;;;;;;;9.40;2.40;;;;;;;15.89;73.42;102253.44;7349771;19;20569;-67
2023/05/31 10:57:36;;;;;;;4.45;2.10;;;;;;;15.98;73.27;102258.66;7353571;19;20013;-68
2023/05/31 11:00:07;;;;;;;5.13;2.45;;;;;;;15.92;73.25;102248.66;7355011;19;20086;-67
2023/05/31 11:02:34;;;;;;;6.40;1.90;;;;;;;15.96;73.29;102239.38;7348731;19;20021;-67
2023/05/31 11:05:08;;;;;;;6.30;1.92;;;;;;;16.06;73.26;102240.13;7350018;19;21225;-67
2023/05/31 11:07:35;;;;;;;5.25;1.83;;;;;;;16.14;73.26;102237.56;7352008;19;20122;-66
2023/05/31 11:10:03;;;;;;;8.32;1.83;;;;;;;16.21;72.30;102243.06;7352674;19;20022;-66
2023/05/31 11:12:33;;;;;;;8.02;1.92;;;;;;;16.29;72.11;102244.97;7354283;19;20044;-66
2023/05/31 11:15:03;;;;;;;7.82;1.98;;;;;;;16.14;72.96;102240.22;7347794;19;20337;-67
2023/05/31 11:17:41;;;;;;;6.30;1.67;;;;;;;16.24;72.28;102245.44;7345343;19;20015;-66
2023/05/31 11:20:15;;;;;;;6.43;1.98;;;;;;;16.09;72.48;102237.19;7343575;19;20052;-66
2023/05/31 11:22:43;;;;;;;4.47;1.80;;;;;;;16.09;72.95;102237.19;7351214;19;20011;-66
2023/05/31 11:25:20;;;;;;;4.10;1.90;;;;;;;16.11;72.60;102235.19;7350403;19;20543;-65
2023/05/31 11:28:05;;;;;;;9.95;2.72;;;;;;;16.20;72.60;102230.81;7353110;19;20317;-66
2023/05/31 11:30:37;;;;;;;7.10;2.55;;;;;;;16.23;72.68;102225.16;7339665;19;20853;-67